createdAt,value
2019-03-06T18:28:22.195Z,7.60
2019-03-06T18:30:53.329Z,7.63
2019-03-06T18:33:24.565Z,7.65
2019-03-06T18:36:13.048Z,7.71
2019-03-06T18:38:44.260Z,7.72
2019-03-06T18:41:15.440Z,7.83
2019-03-06T18:43:50.783Z,7.87
2019-03-06T18:46:21.816Z,7.85
2019-03-06T18:48:53.110Z,7.94
2019-03-06T18:51:24.238Z,7.89
2019-03-06T18:53:55.519Z,7.95
2019-03-06T18:56:26.667Z,7.85
2019-03-06T18:58:59.005Z,7.89
2019-03-06T19:01:30.775Z,7.72
2019-03-06T19:04:01.886Z,7.73
2019-03-06T19:06:33.099Z,7.78
2019-03-06T19:09:05.753Z,7.84
2019-03-06T19:11:38.359Z,7.73
2019-03-06T19:14:09.614Z,7.75
2019-03-06T19:16:40.831Z,7.73
2019-03-06T19:19:11.924Z,7.75
2019-03-06T19:21:43.054Z,7.78
2019-03-06T19:24:14.049Z,7.74
2019-03-06T19:26:45.159Z,7.67
2019-03-06T19:29:16.399Z,7.72
2019-03-06T19:31:47.604Z,7.55
2019-03-06T19:34:18.790Z,7.46
2019-03-06T19:36:50.072Z,7.43
2019-03-06T19:39:22.410Z,7.25
2019-03-06T19:41:53.753Z,7.23
2019-03-06T19:44:25.010Z,7.09
2019-03-06T19:46:56.042Z,7.07
2019-03-06T19:49:27.180Z,7.04
2019-03-06T19:51:58.524Z,6.98
2019-03-06T19:54:29.666Z,6.73
2019-03-06T19:57:00.700Z,6.78
2019-03-06T19:59:31.901Z,6.66
2019-03-06T20:02:03.088Z,6.66
2019-03-06T20:04:34.343Z,6.67
2019-03-06T20:07:05.463Z,6.50
2019-03-06T20:09:36.451Z,6.50
2019-03-06T20:12:08.642Z,6.52
2019-03-06T20:14:40.037Z,6.37
2019-03-06T20:17:11.139Z,6.28
2019-03-06T20:19:42.290Z,6.28
2019-03-06T20:22:13.288Z,6.27
2019-03-06T20:24:45.709Z,6.35
2019-03-06T20:27:18.061Z,6.14
2019-03-06T20:29:49.042Z,6.19
2019-03-06T20:32:20.026Z,6.04
2019-03-06T20:34:51.429Z,6.03
2019-03-06T20:37:22.588Z,6.03
2019-03-06T20:39:54.620Z,5.96
2019-03-06T20:42:25.584Z,5.81
2019-03-06T20:44:56.742Z,5.78
2019-03-06T20:47:29.450Z,5.58
2019-03-06T20:50:00.583Z,5.58
2019-03-06T20:52:31.624Z,5.41
2019-03-06T20:55:02.745Z,5.41
2019-03-06T20:57:33.789Z,5.26
2019-03-06T21:00:10.299Z,5.20
2019-03-06T21:02:41.339Z,5.28
2019-03-06T21:05:12.344Z,5.12
2019-03-06T21:07:45.210Z,5.07
2019-03-06T21:10:18.660Z,5.15
2019-03-06T21:12:49.621Z,4.99
2019-03-06T21:15:21.773Z,4.99
2019-03-06T21:17:52.769Z,4.97
2019-03-06T21:20:24.428Z,4.89
2019-03-06T21:22:55.611Z,4.93
2019-03-06T21:25:26.968Z,4.90
2019-03-06T21:27:57.943Z,4.90
2019-03-06T21:30:33.818Z,4.82
2019-03-06T21:33:04.860Z,4.88
2019-03-06T21:35:35.838Z,4.81
2019-03-06T21:38:06.874Z,4.71
2019-03-06T21:40:37.915Z,4.75
2019-03-06T21:43:08.887Z,4.55
2019-03-06T21:45:40.013Z,4.64
2019-03-06T21:48:11.055Z,4.71
2019-03-06T21:50:42.215Z,4.70
2019-03-06T21:53:13.684Z,4.81
2019-03-06T21:55:48.581Z,4.93
2019-03-06T21:58:20.892Z,4.93
2019-03-06T22:01:00.380Z,4.64
2019-03-06T22:03:34.068Z,4.62
2019-03-06T22:06:05.250Z,4.69
2019-03-06T22:08:36.290Z,4.80
2019-03-06T22:11:07.315Z,4.70
2019-03-06T22:13:38.316Z,4.54
2019-03-06T22:16:09.520Z,4.68
2019-03-06T22:18:40.610Z,4.79
2019-03-06T22:21:11.624Z,4.79
2019-03-06T22:23:43.671Z,4.84
2019-03-06T22:26:14.791Z,4.83
2019-03-06T22:28:47.116Z,4.81
2019-03-06T22:31:17.992Z,4.78
2019-03-06T22:33:49.031Z,4.66
2019-03-06T22:36:20.066Z,4.44
2019-03-06T22:38:51.108Z,4.44
2019-03-06T22:41:22.324Z,4.49
2019-03-06T22:43:54.402Z,4.49
2019-03-06T22:46:25.420Z,4.41
2019-03-06T22:48:56.380Z,4.25
2019-03-06T22:51:30.106Z,4.30
2019-03-06T22:54:01.429Z,4.34
2019-03-06T22:59:34.827Z,4.33
2019-03-06T23:02:07.654Z,4.31
2019-03-06T23:05:06.528Z,4.25
2019-03-06T23:07:53.041Z,4.21
2019-03-06T23:10:24.083Z,4.06
2019-03-06T23:12:58.748Z,4.17
2019-03-06T23:15:28.013Z,4.11
2019-03-06T23:18:00.282Z,4.14
2019-03-06T23:20:31.322Z,4.05
2019-03-06T23:23:02.366Z,4.07
2019-03-06T23:25:33.412Z,3.95
2019-03-06T23:28:04.560Z,4.00
2019-03-06T23:30:35.899Z,4.03
2019-03-06T23:33:06.952Z,3.95
2019-03-06T23:35:37.974Z,4.04
2019-03-06T23:38:08.957Z,4.07
2019-03-06T23:40:39.896Z,4.04
2019-03-06T23:43:11.055Z,4.08
2019-03-06T23:45:42.045Z,4.05
2019-03-06T23:48:13.020Z,3.98
2019-03-06T23:50:44.127Z,4.03
2019-03-06T23:53:15.193Z,3.96
2019-03-06T23:55:46.288Z,3.87
2019-03-06T23:58:17.327Z,3.89
